createdAt,value
2022-11-27T00:00:31.654Z,2.64
2022-11-27T00:02:40.453Z,2.65
2022-11-27T00:04:43.437Z,2.68
2022-11-27T00:06:46.100Z,2.66
2022-11-27T00:08:49.573Z,2.59
2022-11-27T00:10:52.646Z,2.54
2022-11-27T00:12:55.270Z,2.55
2022-11-27T00:14:57.871Z,2.56
2022-11-27T00:17:01.014Z,2.55
2022-11-27T00:19:05.280Z,2.53
2022-11-27T00:21:09.196Z,2.49
2022-11-27T00:23:11.996Z,2.44
2022-11-27T00:25:14.723Z,2.42
2022-11-27T00:27:17.322Z,2.41
2022-11-27T00:29:19.891Z,2.37
2022-11-27T00:31:23.776Z,2.37
2022-11-27T00:33:26.501Z,2.28
2022-11-27T00:35:30.403Z,2.29
2022-11-27T00:37:33.330Z,2.28
2022-11-27T00:39:35.961Z,2.30
2022-11-27T00:41:39.000Z,2.32
2022-11-27T00:43:45.612Z,2.35
2022-11-27T00:45:50.088Z,2.40
2022-11-27T00:47:52.711Z,2.30
2022-11-27T00:49:55.302Z,2.23
2022-11-27T00:51:59.213Z,2.18
2022-11-27T00:54:02.267Z,2.12
2022-11-27T00:56:05.500Z,2.16
2022-11-27T00:58:08.123Z,1.97
2022-11-27T01:00:12.042Z,1.98
2022-11-27T01:02:14.723Z,1.98
2022-11-27T01:04:17.603Z,1.97
2022-11-27T01:06:23.155Z,1.86
2022-11-27T01:08:27.142Z,1.84
2022-11-27T01:10:29.821Z,1.84
2022-11-27T01:12:32.479Z,1.86
2022-11-27T01:14:35.359Z,1.90
2022-11-27T01:16:42.590Z,1.81
2022-11-27T01:18:47.892Z,1.83
2022-11-27T01:20:53.506Z,1.84
2022-11-27T01:22:56.118Z,1.88
2022-11-27T01:25:00.129Z,1.88
2022-11-27T01:27:02.738Z,1.90
2022-11-27T01:29:05.376Z,1.87
2022-11-27T01:31:09.661Z,1.87
2022-11-27T01:33:12.662Z,1.85
2022-11-27T01:35:15.384Z,1.85
2022-11-27T01:37:18.081Z,1.85
2022-11-27T01:39:24.058Z,1.89
2022-11-27T01:41:31.083Z,1.91
2022-11-27T01:43:39.286Z,1.95
2022-11-27T01:45:42.203Z,1.98
2022-11-27T01:47:49.121Z,1.95
2022-11-27T01:49:55.293Z,1.96
2022-11-27T01:52:03.311Z,2.00
2022-11-27T01:54:06.300Z,2.01
2022-11-27T01:56:09.616Z,1.99
2022-11-27T01:58:16.069Z,2.00
2022-11-27T02:02:23.512Z,1.94
2022-11-27T02:04:26.162Z,1.96
2022-11-27T02:06:29.312Z,2.00
2022-11-27T02:08:32.294Z,1.97
2022-11-27T02:10:44.313Z,1.91
2022-11-27T02:12:55.708Z,1.85
2022-11-27T02:15:09.831Z,1.89
2022-11-27T02:17:18.167Z,1.85
2022-11-27T02:19:35.456Z,1.82
2022-11-27T02:21:45.526Z,1.74
2022-11-27T02:24:32.375Z,1.75
2022-11-27T02:27:25.829Z,1.80
2022-11-27T02:29:32.443Z,1.82
2022-11-27T02:31:41.717Z,1.86
2022-11-27T02:33:50.539Z,1.88
2022-11-27T02:35:59.883Z,1.86
2022-11-27T02:38:09.630Z,1.78
2022-11-27T02:40:16.588Z,1.73
2022-11-27T02:42:21.949Z,1.72
2022-11-27T02:44:26.867Z,1.60
2022-11-27T02:46:31.070Z,1.58
2022-11-27T02:48:38.456Z,1.60
2022-11-27T02:50:44.610Z,1.65
2022-11-27T02:52:50.023Z,1.66
2022-11-27T02:54:56.461Z,1.72
2022-11-27T02:57:01.845Z,1.78
2022-11-27T02:59:08.850Z,1.80
2022-11-27T03:01:13.270Z,1.82
2022-11-27T03:03:20.757Z,1.85
2022-11-27T03:05:27.214Z,1.86
2022-11-27T03:07:38.404Z,1.88
2022-11-27T03:09:45.031Z,1.92
2022-11-27T03:11:49.230Z,1.99
2022-11-27T03:13:55.808Z,1.98
2022-11-27T03:16:10.164Z,2.05
2022-11-27T03:18:23.048Z,1.87
2022-11-27T03:20:28.874Z,1.87
2022-11-27T03:22:31.722Z,1.78
2022-11-27T03:24:36.393Z,1.78
2022-11-27T03:26:40.200Z,1.79
2022-11-27T03:28:46.542Z,1.81
2022-11-27T03:30:49.487Z,1.87
2022-11-27T03:32:52.462Z,1.88
2022-11-27T03:34:57.102Z,1.86
2022-11-27T03:36:59.759Z,1.73
2022-11-27T03:39:02.803Z,1.72
2022-11-27T03:41:12.968Z,1.74
2022-11-27T03:43:22.752Z,1.77
2022-11-27T03:45:33.088Z,1.76
2022-11-27T03:47:47.521Z,1.78
2022-11-27T03:50:06.897Z,1.71
2022-11-27T03:52:14.769Z,1.76
2022-11-27T03:54:26.704Z,1.77
2022-11-27T03:56:37.327Z,1.79
2022-11-27T03:58:44.537Z,1.78
2022-11-27T04:00:49.883Z,1.79
2022-11-27T04:02:54.579Z,1.80
2022-11-27T04:04:57.150Z,1.77
2022-11-27T04:07:01.163Z,1.77
2022-11-27T04:09:04.426Z,1.79
2022-11-27T04:11:07.279Z,1.80
2022-11-27T04:13:09.877Z,1.65
2022-11-27T04:15:12.922Z,1.64
2022-11-27T04:17:15.540Z,1.66
2022-11-27T04:19:18.127Z,1.65
2022-11-27T04:21:20.792Z,1.61
2022-11-27T04:23:24.826Z,1.54
2022-11-27T04:25:27.954Z,1.52
2022-11-27T04:27:30.577Z,1.61
2022-11-27T04:29:33.283Z,1.53
2022-11-27T04:31:35.936Z,1.51
2022-11-27T04:33:38.745Z,1.47
2022-11-27T04:35:41.415Z,1.41
2022-11-27T04:37:44.011Z,1.48
2022-11-27T04:39:47.980Z,1.43
2022-11-27T04:41:50.921Z,1.38
2022-11-27T04:43:53.539Z,1.40
2022-11-27T04:45:56.201Z,1.39
2022-11-27T04:47:58.770Z,1.40
2022-11-27T04:50:01.551Z,1.40
2022-11-27T04:52:04.630Z,1.40
2022-11-27T04:54:07.380Z,1.46
2022-11-27T04:56:13.577Z,1.53
2022-11-27T04:58:16.171Z,1.48
2022-11-27T05:00:19.980Z,1.40
2022-11-27T05:02:22.690Z,1.43
2022-11-27T05:04:25.487Z,1.41
2022-11-27T05:06:28.193Z,1.21
2022-11-27T05:08:32.881Z,1.25
2022-11-27T05:10:35.533Z,1.28
2022-11-27T05:12:39.547Z,1.23
2022-11-27T05:14:42.394Z,1.17
2022-11-27T05:16:47.290Z,1.20
2022-11-27T05:18:49.858Z,1.19
2022-11-27T05:20:57.250Z,1.24
2022-11-27T05:22:59.826Z,1.29
2022-11-27T05:25:02.510Z,1.28
2022-11-27T05:27:05.439Z,1.24
2022-11-27T05:29:11.038Z,1.19
2022-11-27T05:31:13.719Z,1.13
2022-11-27T05:33:17.887Z,1.11
2022-11-27T05:35:20.484Z,1.15
2022-11-27T05:37:23.141Z,1.30
2022-11-27T05:39:25.976Z,0.86
2022-11-27T05:41:28.977Z,0.99
2022-11-27T05:43:31.576Z,1.08
2022-11-27T05:45:35.557Z,1.12
2022-11-27T05:47:38.157Z,1.08
2022-11-27T05:49:40.744Z,1.03
2022-11-27T05:51:49.391Z,0.98
2022-11-27T05:53:53.540Z,0.96
2022-11-27T05:55:56.582Z,0.95
2022-11-27T05:57:59.225Z,0.95
2022-11-27T06:00:02.361Z,0.86
2022-11-27T06:02:06.401Z,0.87
2022-11-27T06:04:09.052Z,0.92
2022-11-27T06:06:14.917Z,0.99
2022-11-27T06:08:17.599Z,0.84
2022-11-27T06:10:20.248Z,0.87
2022-11-27T06:12:22.889Z,0.87
2022-11-27T06:14:25.631Z,0.93
2022-11-27T06:16:28.320Z,1.00
2022-11-27T06:18:32.374Z,0.96
2022-11-27T06:20:38.451Z,1.01
2022-11-27T06:22:43.739Z,1.00
2022-11-27T06:24:46.397Z,1.02
2022-11-27T06:26:49.088Z,1.06
2022-11-27T06:28:52.257Z,1.12
2022-11-27T06:30:54.869Z,1.04
2022-11-27T06:32:57.644Z,1.09
2022-11-27T06:35:01.659Z,1.03
2022-11-27T06:37:05.415Z,1.04
2022-11-27T06:39:12.234Z,1.05
2022-11-27T06:41:17.011Z,1.07
2022-11-27T06:43:19.605Z,1.07
2022-11-27T06:45:22.274Z,1.05
2022-11-27T06:47:25.061Z,0.94
2022-11-27T06:49:27.711Z,0.94
2022-11-27T06:51:33.564Z,0.88
2022-11-27T06:53:38.140Z,0.92
2022-11-27T06:55:40.786Z,0.93
2022-11-27T06:57:43.377Z,0.89
2022-11-27T06:59:46.006Z,0.91
2022-11-27T07:01:48.839Z,0.83
2022-11-27T07:03:51.762Z,0.73
2022-11-27T07:05:54.540Z,0.74
2022-11-27T07:07:59.671Z,0.75
2022-11-27T07:10:02.374Z,0.75
2022-11-27T07:12:06.143Z,0.77
2022-11-27T07:14:08.775Z,0.80
2022-11-27T07:16:12.862Z,0.77
2022-11-27T07:18:15.546Z,0.82
2022-11-27T07:20:18.286Z,0.84
2022-11-27T07:22:20.874Z,0.90
2022-11-27T07:24:24.832Z,0.89
2022-11-27T07:26:29.275Z,0.92
2022-11-27T07:28:31.905Z,0.89
2022-11-27T07:30:34.565Z,0.92
2022-11-27T07:32:37.192Z,0.91
2022-11-27T07:34:40.088Z,0.97
2022-11-27T07:36:43.114Z,1.01
2022-11-27T07:38:46.527Z,0.98
2022-11-27T07:40:50.483Z,0.96
2022-11-27T07:42:54.387Z,0.99
2022-11-27T07:44:57.137Z,1.01
2022-11-27T07:46:59.894Z,1.03
2022-11-27T07:49:02.508Z,1.05
2022-11-27T07:51:06.802Z,1.07
2022-11-27T07:53:09.400Z,1.13
2022-11-27T07:55:12.040Z,1.13
2022-11-27T07:57:16.174Z,1.16
2022-11-27T07:59:18.775Z,1.24
2022-11-27T08:01:22.174Z,1.31
2022-11-27T08:03:25.251Z,1.37
2022-11-27T08:05:27.990Z,1.37
2022-11-27T08:07:31.421Z,1.41
2022-11-27T08:09:34.165Z,1.41
2022-11-27T08:11:36.820Z,1.45
2022-11-27T08:13:40.808Z,1.48
2022-11-27T08:15:43.602Z,1.50
2022-11-27T08:17:46.308Z,1.52
2022-11-27T08:19:48.949Z,1.50
2022-11-27T08:21:51.745Z,1.52
2022-11-27T08:23:54.749Z,1.43
2022-11-27T08:25:57.354Z,1.43
2022-11-27T08:27:59.948Z,1.48
2022-11-27T08:30:04.402Z,1.47
2022-11-27T08:32:07.443Z,1.55
2022-11-27T08:34:10.127Z,1.43
2022-11-27T08:36:17.814Z,1.55
2022-11-27T08:38:21.608Z,1.54
2022-11-27T08:40:24.242Z,1.56
2022-11-27T08:42:26.988Z,1.58
2022-11-27T08:44:29.620Z,1.60
2022-11-27T08:46:33.547Z,1.60
2022-11-27T08:48:36.516Z,1.65
2022-11-27T08:50:39.108Z,1.65
2022-11-27T08:52:41.737Z,1.67
2022-11-27T08:54:44.361Z,1.85
2022-11-27T08:56:47.005Z,1.86
2022-11-27T08:58:49.664Z,1.83
2022-11-27T09:00:52.407Z,1.85
2022-11-27T09:02:56.422Z,1.83
2022-11-27T09:04:59.007Z,1.87
2022-11-27T09:07:01.602Z,1.85
2022-11-27T09:09:06.859Z,1.87
2022-11-27T09:11:11.132Z,1.87
2022-11-27T09:13:13.779Z,1.88
2022-11-27T09:15:17.584Z,1.95
2022-11-27T09:17:20.193Z,1.97
2022-11-27T09:19:24.546Z,2.03
2022-11-27T09:21:30.278Z,2.21
2022-11-27T09:23:33.154Z,2.15
2022-11-27T09:25:35.793Z,2.00
2022-11-27T09:27:38.885Z,2.15
2022-11-27T09:29:41.499Z,2.20
2022-11-27T09:31:44.286Z,2.16
2022-11-27T09:33:47.145Z,2.37
2022-11-27T09:35:51.191Z,2.39
2022-11-27T09:37:53.889Z,2.33
2022-11-27T09:39:56.573Z,2.40
2022-11-27T09:42:00.694Z,2.43
2022-11-27T09:44:07.510Z,2.44
2022-11-27T09:46:17.812Z,2.46
2022-11-27T09:48:27.289Z,2.57
2022-11-27T09:50:32.951Z,2.52
2022-11-27T09:52:40.953Z,2.50
2022-11-27T09:54:52.350Z,2.55
2022-11-27T09:56:56.099Z,2.54
2022-11-27T09:59:00.537Z,2.64
2022-11-27T10:01:09.961Z,2.69
2022-11-27T10:03:14.911Z,2.70
2022-11-27T10:05:21.711Z,2.87
2022-11-27T10:07:34.928Z,2.87
2022-11-27T10:09:50.963Z,2.87
2022-11-27T10:12:02.859Z,2.84
2022-11-27T10:14:22.463Z,2.91
2022-11-27T10:16:31.972Z,2.85
2022-11-27T10:18:41.643Z,2.88
2022-11-27T10:20:49.726Z,3.02
2022-11-27T10:22:59.574Z,2.89
2022-11-27T10:25:16.937Z,2.97
2022-11-27T10:27:26.694Z,3.05
2022-11-27T10:29:37.535Z,3.06
2022-11-27T10:31:48.065Z,3.22
2022-11-27T10:33:54.479Z,3.11
2022-11-27T10:35:57.702Z,3.12
2022-11-27T10:38:06.966Z,3.06
2022-11-27T10:40:22.209Z,3.11
2022-11-27T10:42:29.767Z,3.23
2022-11-27T10:44:36.387Z,3.17
2022-11-27T10:46:40.934Z,3.22
2022-11-27T10:48:46.380Z,3.32
2022-11-27T10:50:49.040Z,3.29
2022-11-27T10:52:56.742Z,3.29
2022-11-27T10:55:03.788Z,3.40
2022-11-27T10:57:30.926Z,3.41
2022-11-27T10:59:36.710Z,3.58
2022-11-27T11:01:44.609Z,3.56
2022-11-27T11:03:47.722Z,3.60
2022-11-27T11:06:19.517Z,3.65
2022-11-27T11:08:21.792Z,3.70
2022-11-27T11:10:28.951Z,3.73
2022-11-27T11:12:33.215Z,3.78
2022-11-27T11:14:35.875Z,3.80
2022-11-27T11:16:43.540Z,3.79
2022-11-27T11:18:49.070Z,3.80
2022-11-27T11:20:54.717Z,3.80
2022-11-27T11:22:59.338Z,3.83
2022-11-27T11:25:02.815Z,3.88
2022-11-27T11:27:08.148Z,3.88
2022-11-27T11:29:26.696Z,3.92
2022-11-27T11:31:33.568Z,3.92
2022-11-27T11:33:48.421Z,3.96
2022-11-27T11:35:54.456Z,4.00
2022-11-27T11:37:58.808Z,4.06
2022-11-27T11:40:04.223Z,4.14
2022-11-27T11:42:11.411Z,4.23
2022-11-27T11:44:24.243Z,4.29
2022-11-27T11:46:30.007Z,4.35
2022-11-27T11:48:32.767Z,4.45
2022-11-27T11:50:41.997Z,4.52
2022-11-27T11:52:59.165Z,4.55
2022-11-27T11:55:07.790Z,4.62
2022-11-27T11:57:28.338Z,4.64
2022-11-27T11:59:42.139Z,4.71
2022-11-27T12:02:06.016Z,4.75
2022-11-27T12:04:24.838Z,4.78
2022-11-27T12:06:37.558Z,4.79
2022-11-27T12:08:55.442Z,4.82
2022-11-27T12:11:07.985Z,4.89
2022-11-27T12:13:23.655Z,4.93
2022-11-27T12:15:33.227Z,4.99
2022-11-27T12:17:53.146Z,5.03
2022-11-27T12:20:15.306Z,5.10
2022-11-27T12:22:27.291Z,5.16
2022-11-27T12:24:42.197Z,5.24
2022-11-27T12:26:59.135Z,5.29
2022-11-27T12:29:25.059Z,5.33
2022-11-27T12:31:56.300Z,5.39
2022-11-27T12:34:03.342Z,5.46
2022-11-27T12:36:17.130Z,5.50
2022-11-27T12:38:42.613Z,5.53
2022-11-27T12:41:00.351Z,5.56
2022-11-27T12:43:16.739Z,5.57
2022-11-27T12:45:23.425Z,5.59
2022-11-27T12:47:38.669Z,5.63
2022-11-27T12:49:45.710Z,5.64
2022-11-27T12:51:52.303Z,5.68
2022-11-27T12:54:00.413Z,5.72
2022-11-27T12:56:15.895Z,5.75
2022-11-27T12:58:27.050Z,5.80
2022-11-27T13:00:32.235Z,5.82
2022-11-27T13:02:41.890Z,5.85
2022-11-27T13:04:49.593Z,5.91
2022-11-27T13:06:59.531Z,5.95
2022-11-27T13:09:06.826Z,6.00
2022-11-27T13:11:14.250Z,6.09
2022-11-27T13:13:23.138Z,6.14
2022-11-27T13:15:28.882Z,6.19
2022-11-27T13:17:38.145Z,6.26
2022-11-27T13:19:45.002Z,6.31
2022-11-27T13:21:49.188Z,6.38
2022-11-27T13:23:52.548Z,6.38
2022-11-27T13:25:57.763Z,6.38
2022-11-27T13:28:03.129Z,6.37
2022-11-27T13:30:08.707Z,6.40
2022-11-27T13:32:21.141Z,6.39
2022-11-27T13:34:28.953Z,6.42
2022-11-27T13:36:39.056Z,6.42
2022-11-27T13:38:45.137Z,6.39
2022-11-27T13:40:50.786Z,6.40
2022-11-27T13:42:56.759Z,6.43
2022-11-27T13:45:01.778Z,6.44
2022-11-27T13:47:10.325Z,6.56
2022-11-27T13:49:24.615Z,6.63
2022-11-27T13:51:31.320Z,6.55
2022-11-27T13:53:37.053Z,6.62
2022-11-27T13:55:41.686Z,6.55
2022-11-27T13:57:53.285Z,6.56
2022-11-27T13:59:59.516Z,6.52
2022-11-27T14:02:05.153Z,6.48
2022-11-27T14:04:10.061Z,6.43
2022-11-27T14:06:19.308Z,6.40
2022-11-27T14:08:27.262Z,6.45
2022-11-27T14:10:33.303Z,6.44
2022-11-27T14:12:37.452Z,6.45
2022-11-27T14:14:43.078Z,6.37
2022-11-27T14:16:55.933Z,6.46
2022-11-27T14:19:01.102Z,6.37
2022-11-27T14:21:05.429Z,6.32
2022-11-27T14:23:12.884Z,6.32
2022-11-27T14:25:21.981Z,6.29
2022-11-27T14:27:27.804Z,6.36
2022-11-27T14:29:31.605Z,6.42
2022-11-27T14:31:36.564Z,6.39
2022-11-27T14:34:07.516Z,6.36
2022-11-27T14:36:08.598Z,6.34
2022-11-27T14:38:12.346Z,6.31
2022-11-27T14:40:16.341Z,6.33
2022-11-27T14:42:28.127Z,6.28
2022-11-27T14:44:32.204Z,6.22
2022-11-27T14:46:37.167Z,6.22
2022-11-27T14:48:45.207Z,6.21
2022-11-27T14:50:49.205Z,6.18
2022-11-27T14:52:54.838Z,6.15
2022-11-27T14:54:58.727Z,6.13
2022-11-27T14:57:01.506Z,6.12
2022-11-27T14:59:06.712Z,6.09
2022-11-27T15:01:09.431Z,6.07
2022-11-27T15:03:12.424Z,6.05
2022-11-27T15:05:21.592Z,6.01
2022-11-27T15:07:29.281Z,6.00
2022-11-27T15:09:35.137Z,6.00
2022-11-27T15:11:55.241Z,6.02
2022-11-27T15:14:02.054Z,6.00
2022-11-27T15:16:15.043Z,5.98
2022-11-27T15:18:23.762Z,5.97
2022-11-27T15:20:29.775Z,5.95
2022-11-27T15:22:33.529Z,5.95
2022-11-27T15:24:37.785Z,5.92
2022-11-27T15:26:40.965Z,5.90
2022-11-27T15:28:44.446Z,6.00
2022-11-27T15:30:47.232Z,5.95
2022-11-27T15:32:52.962Z,5.98
2022-11-27T15:34:55.906Z,6.13
2022-11-27T15:36:59.705Z,6.11
2022-11-27T15:39:16.013Z,6.06
2022-11-27T15:41:26.620Z,6.04
2022-11-27T15:43:29.330Z,6.16
2022-11-27T15:45:33.761Z,6.38
2022-11-27T15:47:38.547Z,6.31
2022-11-27T15:49:42.922Z,6.48
2022-11-27T15:51:45.628Z,6.50
2022-11-27T15:53:48.630Z,6.41
2022-11-27T15:55:51.258Z,6.35
2022-11-27T15:57:53.861Z,6.43
2022-11-27T15:59:56.457Z,6.32
2022-11-27T16:01:59.126Z,6.16
2022-11-27T16:04:01.780Z,6.15
2022-11-27T16:06:07.481Z,6.23
2022-11-27T16:08:11.705Z,6.28
2022-11-27T16:10:14.535Z,6.23
2022-11-27T16:12:17.184Z,6.11
2022-11-27T16:14:19.797Z,6.21
2022-11-27T16:16:22.872Z,6.04
2022-11-27T16:18:25.477Z,6.00
2022-11-27T16:20:28.335Z,6.01
2022-11-27T16:22:32.350Z,5.99
2022-11-27T16:24:35.005Z,5.97
2022-11-27T16:26:38.029Z,5.83
2022-11-27T16:28:40.827Z,5.77
2022-11-27T16:30:43.437Z,5.72
2022-11-27T16:32:46.055Z,5.74
2022-11-27T16:34:51.029Z,5.72
2022-11-27T16:36:53.596Z,5.64
2022-11-27T16:38:57.715Z,5.74
2022-11-27T16:41:01.821Z,5.83
2022-11-27T16:43:05.335Z,5.79
2022-11-27T16:45:09.217Z,5.76
2022-11-27T16:47:11.984Z,5.90
2022-11-27T16:49:14.658Z,5.83
2022-11-27T16:51:19.020Z,5.85
2022-11-27T16:53:21.611Z,5.80
2022-11-27T16:55:26.193Z,5.65
2022-11-27T16:57:28.787Z,5.73
2022-11-27T16:59:31.569Z,5.72
2022-11-27T17:01:36.149Z,5.69
2022-11-27T17:03:38.947Z,5.55
2022-11-27T17:05:41.645Z,5.61
2022-11-27T17:07:44.392Z,5.77
2022-11-27T17:09:47.198Z,5.63
2022-11-27T17:11:52.275Z,5.59
2022-11-27T17:13:58.439Z,5.69
2022-11-27T17:16:02.443Z,5.86
2022-11-27T17:18:05.180Z,5.73
2022-11-27T17:20:09.664Z,5.69
2022-11-27T17:22:12.625Z,5.70
2022-11-27T17:24:16.933Z,5.69
2022-11-27T17:26:22.716Z,5.57
2022-11-27T17:28:27.814Z,5.65
2022-11-27T17:30:39.016Z,5.63
2022-11-27T17:32:42.039Z,5.64
2022-11-27T17:34:45.255Z,5.65
2022-11-27T17:36:53.395Z,5.65
2022-11-27T17:38:56.095Z,5.70
2022-11-27T17:41:01.467Z,5.73
2022-11-27T17:43:04.078Z,5.92
2022-11-27T17:45:09.166Z,5.77
2022-11-27T17:47:11.787Z,5.68
2022-11-27T17:49:14.480Z,5.71
2022-11-27T17:51:17.863Z,5.68
2022-11-27T17:53:20.744Z,5.80
2022-11-27T17:55:23.380Z,5.84
2022-11-27T17:57:26.044Z,5.81
2022-11-27T17:59:31.298Z,5.87
2022-11-27T18:01:35.288Z,5.81
2022-11-27T18:03:38.003Z,5.73
2022-11-27T18:05:40.849Z,5.61
2022-11-27T18:07:43.579Z,5.57
2022-11-27T18:09:47.616Z,5.56
2022-11-27T18:11:50.273Z,5.53
2022-11-27T18:13:52.890Z,5.52
2022-11-27T18:15:55.450Z,5.52
2022-11-27T18:17:59.448Z,5.52
2022-11-27T18:20:03.539Z,5.56
2022-11-27T18:22:08.198Z,5.54
2022-11-27T18:24:26.125Z,5.59
2022-11-27T18:26:52.648Z,5.57
2022-11-27T18:28:55.625Z,5.57
2022-11-27T18:30:58.214Z,5.58
2022-11-27T18:33:03.500Z,5.59
2022-11-27T18:35:07.409Z,5.58
2022-11-27T18:37:10.824Z,5.57
2022-11-27T18:39:13.784Z,5.57
2022-11-27T18:41:18.747Z,5.58
2022-11-27T18:43:21.766Z,5.55
2022-11-27T18:45:33.425Z,5.56
2022-11-27T18:47:38.398Z,5.57
2022-11-27T18:49:42.990Z,5.57
2022-11-27T18:51:45.987Z,5.57
2022-11-27T18:53:49.192Z,5.56
2022-11-27T18:55:52.958Z,5.52
2022-11-27T18:57:55.694Z,5.51
2022-11-27T18:59:58.329Z,5.52
2022-11-27T19:02:01.210Z,5.61
2022-11-27T19:04:04.587Z,5.66
2022-11-27T19:06:10.862Z,5.65
2022-11-27T19:08:13.646Z,5.74
2022-11-27T19:10:16.484Z,5.82
2022-11-27T19:12:19.544Z,6.06
2022-11-27T19:14:22.123Z,5.89
2022-11-27T19:16:26.315Z,6.02
2022-11-27T19:18:29.006Z,5.89
2022-11-27T19:20:33.055Z,5.90
2022-11-27T19:22:38.697Z,5.99
2022-11-27T19:24:41.456Z,5.90
2022-11-27T19:26:44.131Z,5.89
2022-11-27T19:28:49.883Z,5.93
2022-11-27T19:30:52.577Z,5.85
2022-11-27T19:32:55.287Z,5.85
2022-11-27T19:34:58.681Z,5.84
2022-11-27T19:37:02.593Z,5.82
2022-11-27T19:39:09.117Z,5.81
2022-11-27T19:41:13.034Z,5.81
2022-11-27T19:43:15.656Z,5.81
2022-11-27T19:45:18.492Z,5.80
2022-11-27T19:47:21.104Z,5.82
2022-11-27T19:49:23.742Z,5.80
2022-11-27T19:51:27.644Z,5.81
2022-11-27T19:53:30.234Z,5.79
2022-11-27T19:55:34.762Z,5.78
2022-11-27T19:57:38.332Z,5.74
2022-11-27T19:59:41.643Z,5.72
2022-11-27T20:01:45.309Z,5.71
2022-11-27T20:03:48.142Z,5.70
2022-11-27T20:05:53.388Z,5.67
2022-11-27T20:07:59.542Z,5.66
2022-11-27T20:10:02.288Z,5.65
2022-11-27T20:12:06.892Z,5.65
2022-11-27T20:14:09.595Z,5.65
2022-11-27T20:16:14.676Z,5.65
2022-11-27T20:18:17.307Z,5.64
2022-11-27T20:20:21.529Z,5.63
2022-11-27T20:22:24.242Z,5.73
2022-11-27T20:24:27.014Z,5.72
2022-11-27T20:26:30.506Z,5.73
2022-11-27T20:28:35.888Z,5.76
2022-11-27T20:30:41.143Z,5.69
2022-11-27T20:32:43.992Z,5.72
2022-11-27T20:34:46.834Z,5.77
2022-11-27T20:36:49.817Z,5.80
2022-11-27T20:38:53.874Z,5.75
2022-11-27T20:40:56.561Z,5.77
2022-11-27T20:42:59.587Z,5.75
2022-11-27T20:45:05.159Z,5.74
2022-11-27T20:47:07.801Z,5.82
2022-11-27T20:49:10.470Z,5.76
2022-11-27T20:51:14.898Z,5.73
2022-11-27T20:53:17.608Z,5.73
2022-11-27T20:55:20.286Z,5.81
2022-11-27T20:57:22.924Z,5.76
2022-11-27T20:59:25.505Z,5.74
2022-11-27T21:01:31.805Z,5.70
2022-11-27T21:03:34.783Z,5.71
2022-11-27T21:05:37.456Z,5.65
2022-11-27T21:07:41.354Z,5.63
2022-11-27T21:09:44.207Z,5.67
2022-11-27T21:11:48.074Z,5.66
2022-11-27T21:13:50.706Z,5.69
2022-11-27T21:15:54.385Z,5.68
2022-11-27T21:17:58.342Z,5.67
2022-11-27T21:20:01.535Z,5.67
2022-11-27T21:22:04.200Z,5.68
2022-11-27T21:24:08.121Z,5.69
2022-11-27T21:26:11.744Z,5.67
2022-11-27T21:28:14.447Z,5.68
2022-11-27T21:30:19.088Z,5.69
2022-11-27T21:32:22.735Z,5.69
2022-11-27T21:34:26.989Z,5.70
2022-11-27T21:36:31.690Z,5.70
2022-11-27T21:38:34.322Z,5.68
2022-11-27T21:40:37.734Z,5.66
2022-11-27T21:42:44.391Z,5.64
2022-11-27T21:44:47.453Z,5.62
2022-11-27T21:46:51.552Z,5.60
2022-11-27T21:48:56.580Z,5.57
2022-11-27T21:51:02.751Z,5.54
2022-11-27T21:53:05.395Z,5.53
2022-11-27T21:55:12.046Z,5.50
2022-11-27T21:57:14.987Z,5.48
2022-11-27T21:59:17.577Z,5.48
2022-11-27T22:01:21.956Z,5.47
2022-11-27T22:03:24.901Z,5.48
2022-11-27T22:05:27.655Z,5.50
2022-11-27T22:07:31.715Z,5.48
2022-11-27T22:09:34.642Z,5.45
2022-11-27T22:11:37.712Z,5.45
2022-11-27T22:13:41.150Z,5.45
2022-11-27T22:15:43.768Z,5.45
2022-11-27T22:17:46.380Z,5.43
2022-11-27T22:19:49.022Z,5.44
2022-11-27T22:21:51.666Z,5.43
2022-11-27T22:23:55.691Z,5.44
2022-11-27T22:26:01.263Z,5.46
2022-11-27T22:28:04.027Z,5.45
2022-11-27T22:30:08.057Z,5.45
2022-11-27T22:32:10.680Z,5.44
2022-11-27T22:34:13.267Z,5.45
2022-11-27T22:36:17.578Z,5.46
2022-11-27T22:38:20.834Z,5.45
2022-11-27T22:40:24.773Z,5.42
2022-11-27T22:42:27.434Z,5.43
2022-11-27T22:44:30.190Z,5.40
2022-11-27T22:46:35.482Z,5.40
2022-11-27T22:48:38.402Z,5.41
2022-11-27T22:50:41.128Z,5.43
2022-11-27T22:52:43.758Z,5.43
2022-11-27T22:54:46.381Z,5.44
2022-11-27T22:56:50.321Z,5.47
2022-11-27T22:59:11.380Z,5.48
2022-11-27T23:01:18.001Z,5.48
2022-11-27T23:03:20.619Z,5.38
2022-11-27T23:05:23.280Z,5.43
2022-11-27T23:07:25.946Z,5.39
2022-11-27T23:09:28.649Z,5.40
2022-11-27T23:11:31.687Z,5.40
2022-11-27T23:13:35.960Z,5.39
2022-11-27T23:15:38.581Z,5.36
2022-11-27T23:17:41.161Z,5.39
2022-11-27T23:19:43.757Z,5.40
2022-11-27T23:21:46.387Z,5.41
2022-11-27T23:23:49.265Z,5.39
2022-11-27T23:25:51.901Z,5.33
2022-11-27T23:27:54.497Z,5.33
2022-11-27T23:29:58.719Z,5.34
2022-11-27T23:32:01.563Z,5.35
2022-11-27T23:34:07.217Z,5.34
2022-11-27T23:36:11.228Z,5.35
2022-11-27T23:38:13.876Z,5.39
2022-11-27T23:40:16.610Z,5.38
2022-11-27T23:42:19.191Z,5.37
2022-11-27T23:44:21.911Z,5.37
2022-11-27T23:46:28.728Z,5.37
2022-11-27T23:48:31.345Z,5.38
2022-11-27T23:50:33.971Z,5.37
2022-11-27T23:52:36.633Z,5.37
2022-11-27T23:54:39.430Z,5.38
2022-11-27T23:56:43.054Z,5.35
2022-11-27T23:58:47.581Z,5.37
